Time;durP1;ratioP1;P1;durP2;ratioP2;P2;SDS_P1;SDS_P2;PMS_P1;PMS_P2;Temp;Humidity;BMP_temperature;BMP_pressure;BME280_temperature;BME280_humidity;BME280_pressure;Samples;Min_cycle;Max_cycle;Signal;HPM_P1;HPM_P2
2022/10/21 00:00:23;;;;;;;;;;;17.60;94.60;;;;;;4956277;29;19933;-66
2022/10/21 00:02:49;;;;;;;;;;;17.40;94.60;;;;;;4968427;28;19922;-66
2022/10/21 00:05:15;;;;;;;;;;;17.50;94.60;;;;;;4955458;29;20325;-65
2022/10/21 00:07:40;;;;;;;;;;;17.70;94.60;;;;;;4956150;29;19934;-66
2022/10/21 00:10:06;;;;;;;;;;;17.70;94.60;;;;;;4955483;29;19926;-66
2022/10/21 00:12:32;;;;;;;;;;;17.80;94.70;;;;;;4955612;29;20029;-65
2022/10/21 00:14:58;;;;;;;;;;;17.50;94.60;;;;;;4954472;29;19987;-65
2022/10/21 00:17:23;;;;;;;;;;;17.80;94.60;;;;;;4955056;28;20069;-66
2022/10/21 00:19:49;;;;;;;;;;;17.50;94.60;;;;;;4956510;28;19949;-65
2022/10/21 00:22:15;;;;;;;;;;;17.80;94.70;;;;;;4956021;29;19948;-65
2022/10/21 00:24:40;;;;;;;;;;;17.50;94.60;;;;;;4955532;28;19933;-66
2022/10/21 00:27:06;;;;;;;;;;;17.50;94.60;;;;;;4955878;29;19927;-66
2022/10/21 00:29:31;;;;;;;;;;;17.50;94.60;;;;;;4955631;29;19994;-66
2022/10/21 00:31:57;;;;;;;;;;;17.50;94.60;;;;;;4955877;29;19982;-65
2022/10/21 00:34:23;;;;;;;;;;;17.30;94.50;;;;;;4955864;29;20437;-66
2022/10/21 00:36:48;;;;;;;;;;;17.80;94.70;;;;;;4954339;28;19970;-66
2022/10/21 00:39:14;;;;;;;;;;;17.70;94.60;;;;;;4955850;29;19926;-65
2022/10/21 00:41:40;;;;;;;;;;;17.40;94.60;;;;;;4954768;29;19969;-65
2022/10/21 00:44:14;;;;;;;;;;;17.60;94.60;;;;;;4955830;29;19926;-66
2022/10/21 00:46:48;;;;;;;;;;;17.60;94.70;;;;;;4954324;29;19990;-66
2022/10/21 00:49:16;;;;;;;;;;;17.60;94.60;;;;;;4953556;28;19932;-66
2022/10/21 00:51:41;;;;;;;;;;;17.60;94.60;;;;;;4955757;29;19973;-66
2022/10/21 00:54:07;;;;;;;;;;;17.50;94.50;;;;;;4935746;29;19927;-66
2022/10/21 00:56:32;;;;;;;;;;;17.70;94.50;;;;;;4923157;28;19927;-66
2022/10/21 00:58:58;;;;;;;;;;;17.40;94.50;;;;;;4958587;28;20017;-66
2022/10/21 01:01:24;;;;;;;;;;;17.50;94.50;;;;;;4959318;29;19974;-65
2022/10/21 01:03:50;;;;;;;;;;;17.60;94.60;;;;;;4959821;29;19933;-66
2022/10/21 01:06:16;;;;;;;;;;;17.60;94.60;;;;;;4958223;29;20497;-66
2022/10/21 01:08:41;;;;;;;;;;;17.60;94.50;;;;;;4941557;29;19927;-72
2022/10/21 01:11:10;;;;;;;;;;;17.80;94.60;;;;;;4959668;28;20397;-67
2022/10/21 01:13:44;;;;;;;;;;;17.60;94.20;;;;;;4958950;29;19926;-65
2022/10/21 01:16:13;;;;;;;;;;;17.70;94.60;;;;;;4941940;29;19983;-67
2022/10/21 01:18:42;;;;;;;;;;;17.70;94.60;;;;;;4940356;29;20307;-66
2022/10/21 01:21:27;;;;;;;;;;;17.70;94.60;;;;;;4941922;29;20029;-67
2022/10/21 01:23:58;;;;;;;;;;;17.60;94.60;;;;;;4959119;29;19931;-66
2022/10/21 01:26:27;;;;;;;;;;;17.70;94.60;;;;;;4962226;28;19977;-66
2022/10/21 01:28:55;;;;;;;;;;;17.80;94.60;;;;;;4958556;28;20385;-65
2022/10/21 01:31:40;;;;;;;;;;;17.70;94.60;;;;;;4958675;29;20066;-66
2022/10/21 01:34:08;;;;;;;;;;;17.60;94.60;;;;;;4958353;29;19927;-64
2022/10/21 01:36:34;;;;;;;;;;;17.70;94.60;;;;;;4958872;29;19988;-65
2022/10/21 01:39:09;;;;;;;;;;;17.70;94.40;;;;;;4956907;29;19962;-65
2022/10/21 01:41:40;;;;;;;;;;;17.60;94.50;;;;;;4940985;29;19926;-65
2022/10/21 01:44:08;;;;;;;;;;;17.60;94.60;;;;;;4932518;29;20014;-65
2022/10/21 01:46:39;;;;;;;;;;;17.70;94.60;;;;;;4957461;29;19982;-65
2022/10/21 01:49:28;;;;;;;;;;;17.50;94.50;;;;;;4939297;29;19926;-67
2022/10/21 01:51:53;;;;;;;;;;;17.70;94.60;;;;;;4880629;29;20345;-67
2022/10/21 01:54:23;;;;;;;;;;;17.40;94.50;;;;;;4896173;29;19927;-72
2022/10/21 01:56:48;;;;;;;;;;;17.40;94.60;;;;;;4883785;29;20010;-65
2022/10/21 01:59:14;;;;;;;;;;;17.70;94.30;;;;;;4882904;29;20030;-64
2022/10/21 02:01:40;;;;;;;;;;;17.40;94.50;;;;;;4880871;29;19932;-65
2022/10/21 02:04:05;;;;;;;;;;;17.50;94.50;;;;;;4890581;29;19927;-65
2022/10/21 02:06:31;;;;;;;;;;;17.20;94.50;;;;;;4899301;29;20067;-66
2022/10/21 02:08:56;;;;;;;;;;;17.50;94.50;;;;;;4897386;29;20412;-67
2022/10/21 02:11:22;;;;;;;;;;;17.30;94.50;;;;;;4898584;29;19932;-65
2022/10/21 02:13:53;;;;;;;;;;;17.70;94.60;;;;;;4879952;29;19966;-65
2022/10/21 02:16:20;;;;;;;;;;;17.50;94.60;;;;;;4866923;29;20386;-66
2022/10/21 02:18:45;;;;;;;;;;;17.60;94.60;;;;;;4912586;29;19931;-66
2022/10/21 02:21:13;;;;;;;;;;;17.40;94.50;;;;;;4905029;29;19927;-66
2022/10/21 02:23:41;;;;;;;;;;;17.30;94.50;;;;;;4898359;29;20313;-66
2022/10/21 02:26:07;;;;;;;;;;;17.50;94.50;;;;;;4898597;29;20055;-66
2022/10/21 02:28:32;;;;;;;;;;;17.60;94.60;;;;;;4888805;29;20392;-66
2022/10/21 02:31:02;;;;;;;;;;;17.60;94.50;;;;;;4939674;29;20042;-65
2022/10/21 02:33:46;;;;;;;;;;;17.50;94.50;;;;;;4940484;29;19974;-66
2022/10/21 02:36:13;;;;;;;;;;;17.70;94.60;;;;;;4958053;28;20034;-65
2022/10/21 02:38:43;;;;;;;;;;;17.40;94.50;;;;;;4956364;29;19933;-66
2022/10/21 02:41:10;;;;;;;;;;;17.50;94.50;;;;;;4955634;29;19932;-65
2022/10/21 02:43:37;;;;;;;;;;;17.60;94.50;;;;;;4955666;29;19933;-68
2022/10/21 02:46:12;;;;;;;;;;;17.50;94.40;;;;;;4957104;29;19931;-65
2022/10/21 02:48:38;;;;;;;;;;;17.70;94.60;;;;;;4957473;29;19926;-65
2022/10/21 02:51:04;;;;;;;;;;;17.60;94.50;;;;;;4958057;28;19974;-66
2022/10/21 02:53:30;;;;;;;;;;;17.40;94.50;;;;;;4961037;28;20324;-64
2022/10/21 02:55:55;;;;;;;;;;;17.90;94.60;;;;;;4939929;29;20018;-65
2022/10/21 02:58:21;;;;;;;;;;;17.60;94.50;;;;;;4956892;29;19931;-65
2022/10/21 03:00:47;;;;;;;;;;;17.80;94.60;;;;;;4956484;29;20296;-65
2022/10/21 03:03:12;;;;;;;;;;;17.70;94.50;;;;;;4956088;29;19966;-65
2022/10/21 03:05:38;;;;;;;;;;;17.70;94.60;;;;;;4956584;29;20277;-65
2022/10/21 03:08:03;;;;;;;;;;;17.50;94.50;;;;;;4939453;28;19926;-65
2022/10/21 03:10:29;;;;;;;;;;;17.70;94.50;;;;;;4958940;28;19926;-67
2022/10/21 03:12:55;;;;;;;;;;;17.70;94.50;;;;;;4976442;28;20016;-66
2022/10/21 03:15:20;;;;;;;;;;;17.60;94.50;;;;;;4955531;28;20368;-65
2022/10/21 03:17:46;;;;;;;;;;;17.90;94.60;;;;;;4956678;29;19934;-67
2022/10/21 03:20:11;;;;;;;;;;;17.70;94.50;;;;;;4956750;28;20314;-67
2022/10/21 03:22:37;;;;;;;;;;;17.70;94.50;;;;;;4956990;29;19949;-65
2022/10/21 03:25:03;;;;;;;;;;;17.80;94.60;;;;;;4956201;28;20376;-68
2022/10/21 03:27:29;;;;;;;;;;;17.70;94.50;;;;;;4962175;28;19927;-65
2022/10/21 03:29:54;;;;;;;;;;;17.50;94.50;;;;;;4956814;29;19949;-65
2022/10/21 03:32:20;;;;;;;;;;;17.90;94.60;;;;;;4956780;29;19926;-66
2022/10/21 03:34:45;;;;;;;;;;;17.70;94.50;;;;;;4954824;29;19973;-65
2022/10/21 03:37:11;;;;;;;;;;;17.70;94.50;;;;;;4956346;28;19939;-65
2022/10/21 03:39:36;;;;;;;;;;;17.80;94.60;;;;;;4956324;29;20325;-65
2022/10/21 03:42:02;;;;;;;;;;;17.60;94.50;;;;;;4956618;28;19930;-65
2022/10/21 03:44:28;;;;;;;;;;;17.80;94.50;;;;;;4966368;28;19926;-65
2022/10/21 03:46:53;;;;;;;;;;;17.50;94.50;;;;;;4938293;29;19927;-65
2022/10/21 03:49:19;;;;;;;;;;;17.60;94.50;;;;;;4954732;29;20024;-66
2022/10/21 03:51:44;;;;;;;;;;;17.70;94.50;;;;;;4956507;29;19968;-70
2022/10/21 03:54:10;;;;;;;;;;;17.70;94.60;;;;;;4956396;29;20341;-68
2022/10/21 03:56:35;;;;;;;;;;;17.70;94.50;;;;;;4954990;29;19926;-66
2022/10/21 03:59:01;;;;;;;;;;;17.80;94.60;;;;;;4939100;28;19926;-66
2022/10/21 04:01:27;;;;;;;;;;;17.50;94.50;;;;;;4955677;29;20021;-65
2022/10/21 04:03:52;;;;;;;;;;;17.70;94.50;;;;;;4955431;29;19926;-65
2022/10/21 04:06:18;;;;;;;;;;;;;;;;;;4938365;29;19926;-64
2022/10/21 04:08:44;;;;;;;;;;;17.80;94.60;;;;;;4953572;29;19927;-66
2022/10/21 04:11:09;;;;;;;;;;;17.70;94.60;;;;;;4956117;29;20073;-68
2022/10/21 04:13:35;;;;;;;;;;;17.60;94.60;;;;;;4955826;29;20016;-71
2022/10/21 04:16:01;;;;;;;;;;;17.60;94.60;;;;;;4956128;28;19926;-65
2022/10/21 04:18:27;;;;;;;;;;;17.90;94.70;;;;;;4952174;29;20308;-65
2022/10/21 04:20:52;;;;;;;;;;;17.90;94.70;;;;;;4955019;29;19931;-66
2022/10/21 04:23:18;;;;;;;;;;;17.90;94.70;;;;;;4954865;29;19934;-65
2022/10/21 04:25:44;;;;;;;;;;;17.90;94.70;;;;;;4944282;28;19930;-69
2022/10/21 04:28:10;;;;;;;;;;;17.80;94.60;;;;;;4957046;28;20327;-65
2022/10/21 04:30:35;;;;;;;;;;;17.80;94.80;;;;;;4954762;28;19938;-66
2022/10/21 04:33:01;;;;;;;;;;;;;;;;;;4954720;28;19930;-68
2022/10/21 04:35:27;;;;;;;;;;;18.00;94.70;;;;;;4957990;28;19926;-65
2022/10/21 04:37:53;;;;;;;;;;;17.80;94.70;;;;;;4953295;28;19955;-67
2022/10/21 04:40:18;;;;;;;;;;;17.90;94.70;;;;;;4954083;28;19926;-65
2022/10/21 04:42:47;;;;;;;;;;;17.70;94.60;;;;;;4957447;28;19933;-66
2022/10/21 04:45:13;;;;;;;;;;;17.90;94.60;;;;;;4957821;28;19922;-67
2022/10/21 04:47:38;;;;;;;;;;;17.90;94.60;;;;;;4954540;28;19927;-65
2022/10/21 04:50:04;;;;;;;;;;;17.80;94.50;;;;;;4955586;28;19926;-67
2022/10/21 04:52:29;;;;;;;;;;;17.80;94.60;;;;;;4958620;28;19961;-66
2022/10/21 04:54:55;;;;;;;;;;;17.80;94.60;;;;;;4954018;28;20016;-65
2022/10/21 04:57:21;;;;;;;;;;;18.10;94.70;;;;;;4953940;28;19926;-64
2022/10/21 04:59:46;;;;;;;;;;;17.90;94.60;;;;;;4952906;28;19982;-65
2022/10/21 05:02:12;;;;;;;;;;;18.10;94.70;;;;;;4956158;28;19933;-64
2022/10/21 05:04:38;;;;;;;;;;;17.90;94.60;;;;;;4954942;28;20437;-69
2022/10/21 05:07:04;;;;;;;;;;;18.00;94.70;;;;;;4937422;28;19927;-68
2022/10/21 05:09:29;;;;;;;;;;;17.90;94.70;;;;;;4949844;29;19927;-72
2022/10/21 05:11:55;;;;;;;;;;;17.90;94.70;;;;;;4953334;29;19926;-73
2022/10/21 05:14:21;;;;;;;;;;;;;;;;;;4952924;29;19926;-66
2022/10/21 05:16:46;;;;;;;;;;;17.60;94.70;;;;;;4937676;29;19926;-67
2022/10/21 05:19:12;;;;;;;;;;;17.80;94.80;;;;;;4954637;29;20021;-64
2022/10/21 05:21:38;;;;;;;;;;;17.90;94.80;;;;;;4953538;29;19927;-68
2022/10/21 05:24:04;;;;;;;;;;;17.80;94.60;;;;;;4953955;28;19935;-63
2022/10/21 05:26:29;;;;;;;;;;;17.90;94.80;;;;;;4954504;28;19934;-66
2022/10/21 05:28:58;;;;;;;;;;;17.90;94.80;;;;;;4953882;29;19933;-64
2022/10/21 05:31:24;;;;;;;;;;;;;;;;;;4936216;29;19941;-67
2022/10/21 05:33:49;;;;;;;;;;;18.10;95.00;;;;;;4953936;29;19932;-65
2022/10/21 05:36:15;;;;;;;;;;;17.90;94.80;;;;;;4954888;28;20088;-68
2022/10/21 05:38:41;;;;;;;;;;;17.70;94.70;;;;;;4950285;28;20698;-65
2022/10/21 05:41:07;;;;;;;;;;;17.80;94.70;;;;;;4950144;28;19970;-66
2022/10/21 05:43:32;;;;;;;;;;;18.00;94.80;;;;;;4949703;28;20278;-66
2022/10/21 05:45:58;;;;;;;;;;;18.00;94.80;;;;;;4950063;28;20308;-71
2022/10/21 05:48:24;;;;;;;;;;;;;;;;;;4952047;28;19942;-68
2022/10/21 05:50:50;;;;;;;;;;;17.70;94.80;;;;;;4951560;28;19961;-66
2022/10/21 05:53:16;;;;;;;;;;;18.10;94.80;;;;;;4950917;28;19938;-65
2022/10/21 05:55:42;;;;;;;;;;;;;;;;;;4952042;28;20304;-62
2022/10/21 05:58:08;;;;;;;;;;;;;;;;;;4951347;28;19930;-67
2022/10/21 06:00:34;;;;;;;;;;;17.80;94.80;;;;;;4953165;28;20356;-66
2022/10/21 06:03:00;;;;;;;;;;;;;;;;;;4949157;28;19927;-69
2022/10/21 06:05:25;;;;;;;;;;;17.90;94.90;;;;;;4964313;28;19922;-65
2022/10/21 06:07:51;;;;;;;;;;;17.90;94.90;;;;;;4957365;28;19931;-63
2022/10/21 06:10:17;;;;;;;;;;;17.70;94.80;;;;;;4956350;28;19926;-67
2022/10/21 06:12:42;;;;;;;;;;;18.10;94.90;;;;;;4961822;28;20020;-65
2022/10/21 06:15:08;;;;;;;;;;;;;;;;;;4965159;28;19934;-65
2022/10/21 06:17:34;;;;;;;;;;;18.10;94.90;;;;;;4951787;29;19933;-68
2022/10/21 06:20:00;;;;;;;;;;;18.10;95.00;;;;;;4932714;29;19950;-64
2022/10/21 06:22:27;;;;;;;;;;;17.90;94.90;;;;;;4950413;29;19982;-65
2022/10/21 06:24:52;;;;;;;;;;;17.90;94.90;;;;;;4953587;29;19935;-65
2022/10/21 06:27:19;;;;;;;;;;;;;;;;;;4952233;29;19930;-69
2022/10/21 06:29:44;;;;;;;;;;;17.90;95.00;;;;;;4954914;29;19967;-65
2022/10/21 06:32:11;;;;;;;;;;;17.70;94.90;;;;;;4939098;28;20439;-67
2022/10/21 06:34:37;;;;;;;;;;;;;;;;;;4950474;29;19962;-66
2022/10/21 06:37:02;;;;;;;;;;;18.00;95.20;;;;;;4938312;29;19935;-65
2022/10/21 06:39:28;;;;;;;;;;;17.90;95.10;;;;;;4955747;29;20026;-66
2022/10/21 06:41:53;;;;;;;;;;;18.20;95.20;;;;;;4956518;29;19926;-66
2022/10/21 06:44:19;;;;;;;;;;;18.00;95.20;;;;;;4956139;29;19933;-65
2022/10/21 06:46:45;;;;;;;;;;;18.00;95.10;;;;;;4955100;28;19931;-64
2022/10/21 06:49:11;;;;;;;;;;;;;;;;;;4955877;28;20268;-65
2022/10/21 06:51:37;;;;;;;;;;;;;;;;;;4952888;28;20069;-68
2022/10/21 06:54:02;;;;;;;;;;;18.00;95.00;;;;;;4953217;28;19980;-63
2022/10/21 06:56:28;;;;;;;;;;;18.10;95.10;;;;;;4955382;28;20439;-67
2022/10/21 06:58:55;;;;;;;;;;;17.90;95.00;;;;;;4956124;28;19926;-62
2022/10/21 07:01:22;;;;;;;;;;;18.00;95.00;;;;;;4956254;29;20377;-63
2022/10/21 07:03:48;;;;;;;;;;;18.30;95.10;;;;;;4956598;29;19927;-70
2022/10/21 07:06:14;;;;;;;;;;;18.40;95.10;;;;;;4956308;28;19927;-66
2022/10/21 07:08:39;;;;;;;;;;;18.40;95.10;;;;;;4954188;28;20342;-74
2022/10/21 07:11:05;;;;;;;;;;;18.30;95.10;;;;;;4955918;28;20377;-64
2022/10/21 07:13:31;;;;;;;;;;;18.40;94.80;;;;;;4953906;28;19927;-69
2022/10/21 07:16:03;;;;;;;;;;;18.40;95.10;;;;;;4956348;29;20083;-66
2022/10/21 07:18:29;;;;;;;;;;;18.50;95.10;;;;;;4956397;29;19927;-66
2022/10/21 07:21:01;;;;;;;;;;;18.70;95.20;;;;;;4937137;28;20210;-66
2022/10/21 07:23:27;;;;;;;;;;;18.40;95.10;;;;;;4954387;28;19927;-68
2022/10/21 07:25:53;;;;;;;;;;;18.50;95.10;;;;;;4955662;28;19954;-65
2022/10/21 07:28:18;;;;;;;;;;;18.60;95.10;;;;;;4955528;29;19926;-64
2022/10/21 07:30:44;;;;;;;;;;;18.40;95.00;;;;;;4960913;28;20280;-67
2022/10/21 07:33:10;;;;;;;;;;;18.60;95.10;;;;;;4959961;28;19926;-69
2022/10/21 07:35:36;;;;;;;;;;;;;;;;;;4961800;28;20410;-71
2022/10/21 07:38:02;;;;;;;;;;;18.20;95.00;;;;;;4960665;28;19930;-76
2022/10/21 07:40:29;;;;;;;;;;;;;;;;;;4961276;28;19934;-66
2022/10/21 07:42:55;;;;;;;;;;;18.30;95.20;;;;;;4961217;28;19974;-69
2022/10/21 07:45:21;;;;;;;;;;;18.30;95.20;;;;;;4957329;28;19926;-62
2022/10/21 07:47:47;;;;;;;;;;;18.20;95.10;;;;;;4962719;28;19927;-65
2022/10/21 07:50:12;;;;;;;;;;;18.50;95.20;;;;;;4962253;28;19926;-67
2022/10/21 07:52:44;;;;;;;;;;;;;;;;;;4963592;28;19936;-67
2022/10/21 07:55:13;;;;;;;;;;;18.50;95.10;;;;;;4961256;28;19976;-69
2022/10/21 07:57:41;;;;;;;;;;;18.40;95.00;;;;;;4958779;28;19930;-73
2022/10/21 08:00:07;;;;;;;;;;;18.60;95.10;;;;;;4961098;28;20025;-65
2022/10/21 08:02:34;;;;;;;;;;;18.70;95.10;;;;;;4963104;28;19926;-69
2022/10/21 08:05:00;;;;;;;;;;;18.70;95.20;;;;;;4962185;28;21167;-65
2022/10/21 08:07:25;;;;;;;;;;;18.70;95.20;;;;;;4960839;28;19946;-72
2022/10/21 08:09:51;;;;;;;;;;;18.50;95.20;;;;;;4954712;28;19934;-73
2022/10/21 08:12:17;;;;;;;;;;;18.80;95.20;;;;;;4958350;28;19973;-65
2022/10/21 08:14:42;;;;;;;;;;;18.50;95.20;;;;;;4958111;28;19926;-66
2022/10/21 08:17:08;;;;;;;;;;;18.50;95.10;;;;;;4957722;28;19926;-72
2022/10/21 08:19:34;;;;;;;;;;;18.60;95.10;;;;;;4959697;28;19930;-67
2022/10/21 08:21:59;;;;;;;;;;;18.50;95.10;;;;;;4964445;28;19938;-66
2022/10/21 08:24:25;;;;;;;;;;;;;;;;;;4964010;28;19938;-70
2022/10/21 08:26:51;;;;;;;;;;;18.70;95.20;;;;;;4961724;28;20394;-62
2022/10/21 08:29:17;;;;;;;;;;;18.90;95.40;;;;;;4959820;28;19927;-68
2022/10/21 08:31:42;;;;;;;;;;;19.00;95.40;;;;;;4960626;28;19961;-68
2022/10/21 08:34:08;;;;;;;;;;;18.90;95.40;;;;;;4959694;28;20398;-68
2022/10/21 08:36:34;;;;;;;;;;;19.00;95.40;;;;;;4941357;28;19934;-71
2022/10/21 08:39:00;;;;;;;;;;;18.90;95.40;;;;;;4945630;28;19929;-67
2022/10/21 08:41:25;;;;;;;;;;;18.80;95.40;;;;;;4959695;28;19949;-67
2022/10/21 08:43:53;;;;;;;;;;;19.10;95.80;;;;;;4957140;28;20029;-65
2022/10/21 08:46:20;;;;;;;;;;;18.80;95.60;;;;;;4954359;29;19926;-73
2022/10/21 08:48:48;;;;;;;;;;;19.00;95.80;;;;;;4955275;28;20288;-68
2022/10/21 08:51:27;;;;;;;;;;;18.80;95.90;;;;;;4936131;29;19933;-69
2022/10/21 08:53:52;;;;;;;;;;;18.90;96.10;;;;;;4953022;29;20017;-70
2022/10/21 08:56:18;;;;;;;;;;;18.70;96.30;;;;;;4936874;29;21608;-68
2022/10/21 08:58:44;;;;;;;;;;;18.70;96.10;;;;;;4950339;28;20448;-68
2022/10/21 09:01:16;;;;;;;;;;;18.80;96.10;;;;;;4937239;29;19990;-68
2022/10/21 09:03:46;;;;;;;;;;;18.90;96.10;;;;;;4955018;29;19930;-67
2022/10/21 09:06:41;;;;;;;;;;;18.80;96.20;;;;;;4956166;28;20348;-69
2022/10/21 09:09:19;;;;;;;;;;;18.80;96.20;;;;;;4910030;29;19927;-74
2022/10/21 09:11:47;;;;;;;;;;;18.90;96.30;;;;;;4913015;29;19927;-74
2022/10/21 09:14:13;;;;;;;;;;;18.70;96.30;;;;;;4914225;29;20017;-67
2022/10/21 09:16:41;;;;;;;;;;;18.90;96.30;;;;;;4914202;29;20127;-67
2022/10/21 09:19:15;;;;;;;;;;;18.70;96.30;;;;;;4912960;29;20510;-69
2022/10/21 09:21:43;;;;;;;;;;;19.10;96.40;;;;;;4901809;29;20032;-68
2022/10/21 09:24:12;;;;;;;;;;;19.00;96.30;;;;;;4917918;29;19934;-67
2022/10/21 09:26:41;;;;;;;;;;;18.80;96.20;;;;;;4917152;29;19929;-67
2022/10/21 09:29:19;;;;;;;;;;;18.80;96.20;;;;;;4915675;29;19934;-67
2022/10/21 09:31:45;;;;;;;;;;;18.70;96.10;;;;;;4917998;29;19927;-67
2022/10/21 09:34:33;;;;;;;;;;;19.00;96.10;;;;;;4918191;29;19975;-68
2022/10/21 09:36:59;;;;;;;;;;;18.80;96.00;;;;;;4861054;29;20431;-66
2022/10/21 09:39:45;;;;;;;;;;;18.90;95.90;;;;;;4844099;29;20294;-67
2022/10/21 09:42:11;;;;;;;;;;;18.80;95.90;;;;;;4845081;29;20391;-66
2022/10/21 09:44:39;;;;;;;;;;;18.80;96.10;;;;;;4847601;29;20390;-67
2022/10/21 09:47:13;;;;;;;;;;;19.00;96.30;;;;;;4863471;29;19931;-68
2022/10/21 09:49:39;;;;;;;;;;;18.90;96.30;;;;;;4879914;29;19935;-75
2022/10/21 09:52:05;;;;;;;;;;;18.60;96.40;;;;;;4862351;29;19932;-64
2022/10/21 09:54:34;;;;;;;;;;;18.90;96.50;;;;;;4878039;29;19927;-72
2022/10/21 09:57:04;;;;;;;;;;;18.60;96.60;;;;;;4877242;29;20030;-75
2022/10/21 09:59:31;;;;;;;;;;;18.80;96.70;;;;;;4861083;29;19932;-75
2022/10/21 10:02:03;;;;;;;;;;;18.80;96.80;;;;;;4877090;29;19935;-75
2022/10/21 10:04:29;;;;;;;;;;;18.90;96.80;;;;;;4877445;29;19939;-70
2022/10/21 10:06:55;;;;;;;;;;;18.70;96.70;;;;;;4876569;29;20351;-74
2022/10/21 10:09:28;;;;;;;;;;;18.70;96.80;;;;;;4877260;29;20241;-64
2022/10/21 10:12:00;;;;;;;;;;;19.10;96.90;;;;;;4878548;29;19964;-74
2022/10/21 10:14:28;;;;;;;;;;;19.10;96.90;;;;;;4913989;29;20388;-70
2022/10/21 10:16:55;;;;;;;;;;;19.20;96.90;;;;;;4937785;29;20300;-71
2022/10/21 10:19:21;;;;;;;;;;;19.30;96.90;;;;;;4947164;28;19930;-67
2022/10/21 10:22:05;;;;;;;;;;;19.30;96.90;;;;;;4940199;29;19931;-63
2022/10/21 10:24:32;;;;;;;;;;;19.10;96.90;;;;;;4939539;29;19926;-74
2022/10/21 10:27:02;;;;;;;;;;;19.00;96.90;;;;;;4923501;29;20285;-73
2022/10/21 10:29:27;;;;;;;;;;;19.30;96.90;;;;;;4944196;28;19976;-68
2022/10/21 10:31:57;;;;;;;;;;;19.50;97.00;;;;;;4936842;28;19931;-63
2022/10/21 10:34:25;;;;;;;;;;;19.40;97.00;;;;;;4921866;29;20606;-73
2022/10/21 10:36:58;;;;;;;;;;;19.40;97.00;;;;;;4942559;28;20343;-67
2022/10/21 10:39:24;;;;;;;;;;;;;;;;;;4935081;28;19935;-72
2022/10/21 10:41:50;;;;;;;;;;;19.50;96.90;;;;;;4948678;28;19935;-68
2022/10/21 10:44:26;;;;;;;;;;;19.70;97.10;;;;;;4931489;28;19927;-63
2022/10/21 10:46:52;;;;;;;;;;;19.80;97.20;;;;;;4929419;28;19930;-69
2022/10/21 10:49:22;;;;;;;;;;;19.40;97.10;;;;;;4937748;28;19933;-63
2022/10/21 10:51:48;;;;;;;;;;;;;;;;;;4946402;28;20353;-63
2022/10/21 10:54:13;;;;;;;;;;;19.70;97.30;;;;;;4946651;28;19930;-70
2022/10/21 10:56:39;;;;;;;;;;;;;;;;;;4930544;29;20459;-64
2022/10/21 10:59:08;;;;;;;;;;;19.90;97.30;;;;;;4947545;28;19933;-63
2022/10/21 11:01:36;;;;;;;;;;;19.70;97.30;;;;;;4949239;28;19932;-69
2022/10/21 11:04:10;;;;;;;;;;;19.70;97.00;;;;;;4945173;28;19934;-64
2022/10/21 11:06:39;;;;;;;;;;;19.80;97.30;;;;;;4916753;29;20293;-70
2022/10/21 11:09:05;;;;;;;;;;;19.60;97.20;;;;;;4946743;29;20444;-72
2022/10/21 11:11:42;;;;;;;;;;;19.60;97.20;;;;;;4929434;29;20020;-67
2022/10/21 11:14:15;;;;;;;;;;;19.80;97.30;;;;;;4931211;29;19938;-72
2022/10/21 11:16:59;;;;;;;;;;;19.70;97.30;;;;;;4951189;29;19936;-73
2022/10/21 11:19:29;;;;;;;;;;;19.50;97.20;;;;;;4953063;29;20066;-70
2022/10/21 11:21:55;;;;;;;;;;;19.70;97.20;;;;;;4951839;28;19941;-73
2022/10/21 11:24:36;;;;;;;;;;;19.60;97.20;;;;;;4951684;28;19953;-71
2022/10/21 11:27:21;;;;;;;;;;;19.90;97.30;;;;;;4951019;29;19934;-70
2022/10/21 11:29:49;;;;;;;;;;;19.70;97.30;;;;;;4951267;29;20316;-71
2022/10/21 11:32:15;;;;;;;;;;;19.90;97.30;;;;;;4936326;29;20357;-71
2022/10/21 11:34:46;;;;;;;;;;;19.90;97.40;;;;;;4946909;28;19974;-66
2022/10/21 11:37:15;;;;;;;;;;;19.80;97.30;;;;;;4950889;28;19969;-67
2022/10/21 11:39:56;;;;;;;;;;;19.70;97.20;;;;;;4948282;28;19969;-69
2022/10/21 11:42:25;;;;;;;;;;;19.40;97.10;;;;;;4949559;28;19930;-62
2022/10/21 11:44:51;;;;;;;;;;;;;;;;;;4935670;29;19923;-71
2022/10/21 11:47:23;;;;;;;;;;;19.90;97.20;;;;;;4952894;29;20013;-68
2022/10/21 11:49:49;;;;;;;;;;;20.00;97.20;;;;;;4936034;29;19985;-65
2022/10/21 11:52:21;;;;;;;;;;;19.80;97.10;;;;;;4952717;29;20574;-65
2022/10/21 11:55:07;;;;;;;;;;;19.90;97.10;;;;;;4952978;29;20020;-68
2022/10/21 11:57:35;;;;;;;;;;;19.80;97.00;;;;;;4881707;29;19927;-68
2022/10/21 12:00:03;;;;;;;;;;;20.10;97.10;;;;;;4891335;29;19953;-69
2022/10/21 12:02:35;;;;;;;;;;;19.70;96.90;;;;;;4884025;29;19931;-65
2022/10/21 12:05:04;;;;;;;;;;;19.80;96.60;;;;;;4885943;29;19979;-69
2022/10/21 12:07:41;;;;;;;;;;;19.90;96.90;;;;;;4888337;29;20374;-65
2022/10/21 12:10:30;;;;;;;;;;;19.90;96.90;;;;;;4885782;29;19972;-65
2022/10/21 12:12:56;;;;;;;;;;;19.90;96.80;;;;;;4799267;29;19991;-63
2022/10/21 12:15:24;;;;;;;;;;;19.60;96.70;;;;;;4804309;29;20353;-69
2022/10/21 12:17:50;;;;;;;;;;;19.80;96.70;;;;;;4816202;29;19999;-64
2022/10/21 12:20:23;;;;;;;;;;;19.70;96.70;;;;;;4819618;29;20427;-66
2022/10/21 12:22:48;;;;;;;;;;;20.00;96.80;;;;;;4813214;29;19940;-64
2022/10/21 12:25:14;;;;;;;;;;;19.80;96.70;;;;;;4813396;29;19930;-66
2022/10/21 12:27:47;;;;;;;;;;;20.00;96.70;;;;;;4814745;29;19962;-65
2022/10/21 12:30:16;;;;;;;;;;;19.80;96.60;;;;;;4806394;29;19960;-66
2022/10/21 12:32:51;;;;;;;;;;;19.60;96.60;;;;;;4822565;29;19928;-65
2022/10/21 12:35:26;;;;;;;;;;;20.00;96.70;;;;;;4887328;29;19934;-68
2022/10/21 12:37:52;;;;;;;;;;;19.90;96.70;;;;;;4907711;29;19934;-65
2022/10/21 12:40:26;;;;;;;;;;;19.90;96.60;;;;;;4906746;29;19932;-65
2022/10/21 12:43:05;;;;;;;;;;;19.80;96.60;;;;;;4896100;29;19923;-68
2022/10/21 12:45:31;;;;;;;;;;;19.80;96.60;;;;;;4882642;29;20492;-67
2022/10/21 12:47:56;;;;;;;;;;;19.80;96.60;;;;;;4905103;29;20664;-65
2022/10/21 12:50:28;;;;;;;;;;;19.80;96.60;;;;;;4922698;29;20013;-68
2022/10/21 12:53:13;;;;;;;;;;;19.70;96.60;;;;;;4952754;28;19935;-67
2022/10/21 12:55:39;;;;;;;;;;;20.00;96.60;;;;;;4964894;28;20525;-69
2022/10/21 12:58:16;;;;;;;;;;;20.00;96.60;;;;;;4944167;29;19927;-67
2022/10/21 13:00:52;;;;;;;;;;;19.70;96.60;;;;;;4938360;29;19934;-69
2022/10/21 13:03:18;;;;;;;;;;;20.00;96.60;;;;;;4956928;28;19992;-66
2022/10/21 13:05:44;;;;;;;;;;;19.90;96.60;;;;;;4954460;29;20029;-68
2022/10/21 13:08:19;;;;;;;;;;;19.80;96.60;;;;;;4933984;29;20065;-72
2022/10/21 13:11:03;;;;;;;;;;;20.10;96.70;;;;;;4947292;28;20763;-70
2022/10/21 13:13:29;;;;;;;;;;;19.80;96.60;;;;;;4948116;29;20408;-62
2022/10/21 13:15:55;;;;;;;;;;;;;;;;;;4947148;29;19970;-68
2022/10/21 13:18:39;;;;;;;;;;;19.80;96.70;;;;;;4945684;29;19934;-69
2022/10/21 13:21:10;;;;;;;;;;;19.70;96.70;;;;;;4949544;28;19934;-72
2022/10/21 13:23:36;;;;;;;;;;;19.50;96.70;;;;;;4935270;29;19930;-74
2022/10/21 13:26:22;;;;;;;;;;;19.70;96.80;;;;;;4931370;29;19981;-65
2022/10/21 13:28:55;;;;;;;;;;;19.90;96.90;;;;;;4935104;29;19985;-74
2022/10/21 13:31:21;;;;;;;;;;;19.60;96.80;;;;;;4945843;29;20313;-63
2022/10/21 13:33:51;;;;;;;;;;;19.50;96.80;;;;;;4919403;28;19933;-62
2022/10/21 13:36:17;;;;;;;;;;;19.70;96.90;;;;;;4947926;29;19934;-63
2022/10/21 13:38:50;;;;;;;;;;;19.80;96.90;;;;;;4934321;29;19936;-64
2022/10/21 13:41:24;;;;;;;;;;;19.60;96.90;;;;;;4944460;29;20329;-71
2022/10/21 13:43:50;;;;;;;;;;;19.70;97.00;;;;;;4941372;29;19974;-65
2022/10/21 13:46:25;;;;;;;;;;;19.60;97.10;;;;;;4919421;29;20014;-64
2022/10/21 13:48:51;;;;;;;;;;;19.30;97.20;;;;;;4935231;29;20005;-63
2022/10/21 13:51:18;;;;;;;;;;;19.80;97.30;;;;;;4929499;29;20420;-63
2022/10/21 13:53:47;;;;;;;;;;;19.50;97.30;;;;;;4955917;29;19969;-66
2022/10/21 13:56:21;;;;;;;;;;;19.40;97.30;;;;;;4964205;28;19930;-68
2022/10/21 13:58:47;;;;;;;;;;;19.50;97.30;;;;;;4955741;29;19930;-70
2022/10/21 14:01:15;;;;;;;;;;;19.50;97.30;;;;;;4944193;29;19934;-68
2022/10/21 14:03:41;;;;;;;;;;;19.50;97.30;;;;;;4938423;28;19931;-65
2022/10/21 14:06:08;;;;;;;;;;;19.30;97.20;;;;;;4955568;29;19955;-70
2022/10/21 14:08:37;;;;;;;;;;;19.40;97.20;;;;;;4955856;29;20362;-70
2022/10/21 14:11:26;;;;;;;;;;;19.60;97.20;;;;;;4955000;28;19927;-66
2022/10/21 14:13:51;;;;;;;;;;;19.60;97.20;;;;;;4947880;29;20355;-68
2022/10/21 14:16:29;;;;;;;;;;;19.80;97.30;;;;;;4952499;29;19927;-68
2022/10/21 14:18:55;;;;;;;;;;;19.70;97.20;;;;;;4936526;29;19972;-64
2022/10/21 14:21:22;;;;;;;;;;;19.20;97.10;;;;;;4943730;29;19970;-62
2022/10/21 14:23:48;;;;;;;;;;;;;;;;;;4930958;29;20308;-64
2022/10/21 14:26:13;;;;;;;;;;;19.40;97.20;;;;;;4923207;29;19934;-66
2022/10/21 14:28:39;;;;;;;;;;;19.60;97.20;;;;;;4924210;29;20025;-68
2022/10/21 14:31:06;;;;;;;;;;;19.60;97.30;;;;;;4924849;29;20033;-67